createdAt,value
2018-12-20T00:02:11.211Z,14.87
2018-12-20T00:04:44.240Z,12.60
2018-12-20T00:07:19.853Z,12.60
2018-12-20T00:09:55.324Z,13.57
2018-12-20T00:12:30.416Z,14.83
2018-12-20T00:15:03.385Z,12.77
2018-12-20T00:17:44.003Z,14.07
2018-12-20T00:20:19.627Z,13.93
2018-12-20T00:22:54.571Z,12.83
2018-12-20T00:25:27.293Z,13.27
2018-12-20T00:28:02.251Z,12.70
2018-12-20T00:30:37.909Z,12.47
2018-12-20T00:33:08.887Z,13.33
2018-12-20T00:35:44.056Z,13.07
2018-12-20T00:38:14.916Z,14.37
2018-12-20T00:40:45.325Z,15.30
2018-12-20T00:43:21.046Z,14.30
2018-12-20T00:45:54.044Z,12.50
2018-12-20T00:48:26.632Z,13.27
2018-12-20T00:51:01.788Z,13.10
2018-12-20T00:53:34.632Z,14.07
2018-12-20T00:56:09.820Z,14.17
2018-12-20T00:58:45.270Z,15.03
2018-12-20T01:01:18.134Z,13.97
2018-12-20T01:03:53.007Z,14.77
2018-12-20T01:06:26.243Z,17.23
2018-12-20T01:09:01.404Z,16.00
2018-12-20T01:11:36.923Z,14.17
2018-12-20T01:14:11.800Z,13.93
2018-12-20T01:16:47.587Z,16.50
2018-12-20T01:19:20.669Z,17.13
2018-12-20T01:21:53.698Z,15.10
2018-12-20T01:24:29.351Z,14.33
2018-12-20T01:27:00.586Z,15.77
2018-12-20T01:29:33.391Z,16.07
2018-12-20T01:32:09.155Z,13.03
2018-12-20T01:34:44.669Z,13.37
2018-12-20T01:37:19.899Z,14.37
2018-12-20T01:39:52.783Z,14.13
2018-12-20T01:42:24.008Z,15.67
2018-12-20T01:44:59.339Z,15.17
2018-12-20T01:47:32.293Z,14.33
2018-12-20T01:50:07.874Z,15.20
2018-12-20T01:52:41.242Z,13.97
2018-12-20T01:55:16.234Z,19.63
2018-12-20T01:57:49.404Z,16.13
2018-12-20T02:00:21.953Z,13.63
2018-12-20T02:02:56.951Z,15.60
2018-12-20T02:05:29.816Z,14.73
2018-12-20T02:08:05.072Z,15.83
2018-12-20T02:10:38.173Z,13.97
2018-12-20T02:13:12.946Z,13.77
2018-12-20T02:15:46.164Z,16.13
2018-12-20T02:18:21.274Z,15.40
2018-12-20T02:20:53.737Z,15.83
2018-12-20T02:23:26.903Z,17.10
2018-12-20T02:25:59.630Z,15.30
2018-12-20T02:28:34.720Z,12.70
2018-12-20T02:31:08.342Z,14.73
2018-12-20T02:33:41.314Z,15.63
2018-12-20T02:36:16.426Z,15.60
2018-12-20T02:38:47.354Z,16.43
2018-12-20T02:41:22.296Z,14.40
2018-12-20T02:43:55.299Z,16.93
2018-12-20T02:46:28.768Z,14.77
2018-12-20T02:49:02.217Z,17.63
2018-12-20T02:51:37.455Z,19.30
2018-12-20T02:54:08.601Z,16.37
2018-12-20T02:56:41.085Z,15.47
2018-12-20T02:59:17.001Z,14.73
2018-12-20T03:01:49.776Z,15.80
2018-12-20T03:04:22.470Z,16.57
2018-12-20T03:06:55.686Z,14.53
2018-12-20T03:09:32.264Z,16.33
2018-12-20T03:12:07.740Z,17.23
2018-12-20T03:14:43.187Z,16.50
2018-12-20T03:17:18.766Z,16.20
2018-12-20T03:19:50.708Z,14.73
2018-12-20T03:22:26.341Z,17.97
2018-12-20T03:25:01.265Z,14.63
2018-12-20T03:27:34.631Z,18.10
2018-12-20T03:30:08.049Z,15.03
2018-12-20T03:32:43.626Z,15.07
2018-12-20T03:35:19.018Z,17.07
2018-12-20T03:37:51.903Z,15.90
2018-12-20T03:40:24.434Z,17.57
2018-12-20T03:43:00.836Z,16.13
2018-12-20T03:45:33.405Z,15.13
2018-12-20T03:48:05.847Z,16.77
2018-12-20T03:50:38.352Z,15.70
2018-12-20T03:53:10.891Z,16.33
2018-12-20T03:55:44.236Z,14.57
2018-12-20T03:58:18.950Z,14.97
2018-12-20T04:00:51.658Z,15.53
2018-12-20T04:03:24.812Z,15.47
2018-12-20T04:05:57.539Z,14.90
2018-12-20T04:08:32.559Z,14.83
2018-12-20T04:11:05.663Z,16.43
2018-12-20T04:13:40.812Z,14.60
2018-12-20T04:16:12.045Z,15.20
2018-12-20T04:18:45.766Z,15.90
2018-12-20T04:21:27.369Z,15.67
2018-12-20T04:24:00.994Z,15.50
2018-12-20T04:26:33.995Z,18.03
2018-12-20T04:29:04.309Z,15.97
2018-12-20T04:31:36.929Z,15.87
2018-12-20T04:34:07.387Z,16.07
2018-12-20T04:36:42.228Z,15.73
2018-12-20T04:39:15.287Z,15.73
2018-12-20T04:41:51.351Z,16.50
2018-12-20T04:44:24.853Z,18.00
2018-12-20T04:46:57.581Z,16.40
2018-12-20T04:49:31.825Z,17.83
2018-12-20T04:52:04.508Z,17.73
2018-12-20T04:54:39.345Z,21.17
2018-12-20T04:57:12.411Z,17.47
2018-12-20T04:59:49.548Z,16.63
2018-12-20T05:02:24.806Z,18.10
2018-12-20T05:04:59.607Z,17.80
2018-12-20T05:07:30.355Z,20.00
2018-12-20T05:10:06.634Z,15.33
2018-12-20T05:12:42.419Z,16.37
2018-12-20T05:15:17.513Z,16.97
2018-12-20T05:17:48.427Z,16.47
2018-12-20T05:20:21.015Z,15.47
2018-12-20T05:22:51.479Z,16.53
2018-12-20T05:25:27.090Z,15.97
2018-12-20T05:28:00.176Z,19.43
2018-12-20T05:30:31.052Z,21.37
2018-12-20T05:33:03.804Z,20.27
2018-12-20T05:35:38.769Z,19.60
2018-12-20T05:38:11.499Z,19.70
2018-12-20T05:40:44.406Z,19.93
2018-12-20T05:43:19.257Z,21.13
2018-12-20T05:45:52.406Z,20.07
2018-12-20T05:48:24.929Z,23.93
2018-12-20T05:50:59.941Z,21.40
2018-12-20T05:53:32.608Z,20.63
2018-12-20T05:56:07.607Z,21.57
2018-12-20T05:58:44.569Z,23.70
2018-12-20T06:01:19.565Z,21.30
2018-12-20T06:03:55.361Z,21.50
2018-12-20T06:06:30.748Z,21.10
2018-12-20T06:09:08.100Z,19.83
2018-12-20T06:11:41.311Z,20.40
2018-12-20T06:14:14.031Z,20.97
2018-12-20T06:16:49.153Z,22.17
2018-12-20T06:19:24.421Z,18.07
2018-12-20T06:21:59.889Z,18.37
2018-12-20T06:24:35.212Z,20.93
2018-12-20T06:27:08.195Z,18.47
2018-12-20T06:29:40.547Z,22.93
2018-12-20T06:32:15.272Z,22.13
2018-12-20T06:34:46.518Z,22.23
2018-12-20T06:37:21.397Z,20.27
2018-12-20T06:39:56.307Z,20.40
2018-12-20T06:42:29.609Z,23.03
2018-12-20T06:45:05.458Z,19.97
2018-12-20T06:47:40.544Z,21.03
2018-12-20T06:50:16.082Z,21.50
2018-12-20T06:52:48.753Z,20.70
2018-12-20T06:58:20.903Z,23.17
2018-12-20T07:00:50.181Z,22.40
2018-12-20T07:03:19.544Z,26.97
2018-12-20T07:05:48.887Z,24.07
2018-12-20T07:08:18.476Z,20.13
2018-12-20T07:10:47.794Z,23.53
2018-12-20T07:13:17.085Z,20.87
2018-12-20T07:15:46.496Z,22.33
2018-12-20T07:18:16.053Z,24.87
2018-12-20T07:20:45.461Z,23.47
2018-12-20T07:23:15.301Z,22.90
2018-12-20T07:25:44.547Z,25.37
2018-12-20T07:28:13.872Z,23.13
2018-12-20T07:30:43.143Z,26.03
2018-12-20T07:33:12.471Z,24.70
2018-12-20T07:35:41.808Z,24.23
2018-12-20T07:38:11.103Z,26.57
2018-12-20T07:40:40.444Z,27.67
2018-12-20T07:43:09.806Z,25.33
2018-12-20T07:45:39.126Z,25.53
2018-12-20T07:48:08.435Z,23.93
2018-12-20T07:50:39.138Z,29.00
2018-12-20T07:53:08.553Z,23.03
2018-12-20T07:55:37.977Z,26.70
2018-12-20T07:58:07.419Z,23.23
2018-12-20T08:00:36.908Z,24.63
2018-12-20T08:03:06.577Z,21.30
2018-12-20T08:05:35.867Z,23.00
2018-12-20T08:08:05.251Z,25.67
2018-12-20T08:10:34.536Z,20.43
2018-12-20T08:13:03.928Z,21.73
2018-12-20T08:15:33.266Z,23.93
2018-12-20T08:18:02.623Z,24.30
2018-12-20T08:20:31.987Z,25.93
2018-12-20T08:23:01.275Z,22.63
2018-12-20T08:25:30.655Z,26.00
2018-12-20T08:28:01.101Z,27.97
2018-12-20T08:30:30.481Z,26.03
2018-12-20T08:32:59.735Z,25.93
2018-12-20T08:35:29.036Z,24.73
2018-12-20T08:37:58.360Z,23.17
2018-12-20T08:40:27.795Z,25.40
2018-12-20T08:42:57.147Z,20.60
2018-12-20T08:45:26.539Z,24.37
2018-12-20T08:47:59.826Z,22.03
2018-12-20T08:50:29.147Z,21.77
2018-12-20T08:52:58.464Z,20.50
2018-12-20T08:55:28.036Z,19.30
2018-12-20T08:57:57.345Z,22.03
2018-12-20T09:00:26.676Z,19.17
2018-12-20T09:02:56.015Z,21.50
2018-12-20T09:05:25.379Z,17.80
2018-12-20T09:07:54.726Z,19.47
2018-12-20T09:10:24.071Z,16.47
2018-12-20T09:12:53.367Z,15.70
2018-12-20T09:15:22.808Z,18.97
2018-12-20T09:17:52.313Z,16.50
2018-12-20T09:20:21.706Z,16.00
2018-12-20T09:22:51.069Z,15.13
2018-12-20T09:25:20.486Z,15.57
2018-12-20T09:27:49.950Z,12.30
2018-12-20T09:30:19.212Z,12.37
2018-12-20T09:32:48.598Z,11.33
2018-12-20T09:35:17.922Z,9.10
2018-12-20T09:37:48.296Z,10.50
2018-12-20T09:40:17.764Z,13.07
2018-12-20T09:42:47.097Z,9.40
2018-12-20T09:45:16.440Z,8.23
2018-12-20T09:47:58.819Z,9.03
2018-12-20T09:50:28.064Z,8.93
2018-12-20T09:52:57.328Z,7.90
2018-12-20T09:55:26.569Z,7.73
2018-12-20T09:57:55.863Z,7.97
2018-12-20T10:00:25.227Z,8.23
2018-12-20T10:02:54.548Z,7.40
2018-12-20T10:05:24.013Z,7.67
2018-12-20T10:07:53.388Z,10.37
2018-12-20T10:10:22.672Z,7.93
2018-12-20T10:12:53.102Z,7.70
2018-12-20T10:15:22.362Z,8.07
2018-12-20T10:17:51.690Z,7.77
2018-12-20T10:20:20.981Z,7.43
2018-12-20T10:22:50.302Z,7.77
2018-12-20T10:25:19.693Z,8.90
2018-12-20T10:27:49.049Z,9.60
2018-12-20T10:30:18.459Z,7.67
2018-12-20T10:32:49.370Z,7.57
2018-12-20T10:35:19.882Z,9.37
2018-12-20T10:40:54.121Z,9.40
2018-12-20T10:43:25.541Z,11.50
2018-12-20T10:45:55.106Z,8.13
2018-12-20T10:48:25.473Z,6.87
2018-12-20T10:50:54.722Z,10.63
2018-12-20T10:53:24.164Z,7.77
2018-12-20T10:55:53.544Z,6.50
2018-12-20T10:58:22.838Z,8.77
2018-12-20T11:00:59.526Z,6.83
2018-12-20T11:03:34.142Z,8.77
2018-12-20T11:06:07.621Z,9.57
2018-12-20T11:08:41.209Z,10.50
2018-12-20T11:11:14.645Z,6.53
2018-12-20T11:13:43.960Z,7.67
2018-12-20T11:16:13.386Z,6.77
2018-12-20T11:18:42.663Z,7.53
2018-12-20T11:21:11.932Z,5.43
2018-12-20T11:23:41.293Z,8.17
2018-12-20T11:26:10.763Z,9.30
2018-12-20T11:28:40.170Z,5.70
2018-12-20T11:31:10.985Z,6.00
2018-12-20T11:33:40.590Z,6.97
2018-12-20T11:36:09.921Z,5.47
2018-12-20T11:38:40.298Z,6.23
2018-12-20T11:41:09.836Z,6.63
2018-12-20T11:43:39.303Z,10.77
2018-12-20T11:46:09.064Z,5.43
2018-12-20T11:48:38.350Z,6.53
2018-12-20T11:51:07.620Z,8.50
2018-12-20T11:53:37.048Z,7.27
2018-12-20T11:56:06.354Z,9.07
2018-12-20T11:58:35.797Z,6.97
2018-12-20T12:01:05.128Z,6.60
2018-12-20T12:03:38.546Z,6.07
2018-12-20T12:06:08.074Z,19.90
2018-12-20T12:08:37.459Z,13.33
2018-12-20T12:11:06.909Z,7.17
2018-12-20T12:13:36.257Z,8.43
2018-12-20T12:16:10.580Z,5.83
2018-12-20T12:18:39.875Z,8.93
2018-12-20T12:21:09.290Z,7.90
2018-12-20T12:23:38.722Z,7.47
2018-12-20T12:26:08.014Z,11.10
2018-12-20T12:28:37.296Z,8.63
2018-12-20T12:31:06.725Z,6.20
2018-12-20T12:33:36.022Z,7.83
2018-12-20T12:36:05.413Z,6.47
2018-12-20T12:38:34.800Z,6.50
2018-12-20T12:41:04.054Z,9.13
2018-12-20T12:43:33.471Z,7.43
2018-12-20T12:46:02.923Z,9.60
2018-12-20T12:48:32.217Z,6.63
2018-12-20T12:51:01.609Z,6.17
2018-12-20T12:53:30.922Z,5.63
2018-12-20T12:56:06.974Z,6.50
2018-12-20T12:58:36.278Z,6.97
2018-12-20T13:01:05.868Z,7.47
2018-12-20T13:03:35.130Z,10.47
2018-12-20T13:06:05.713Z,6.90
2018-12-20T13:08:35.008Z,7.03
2018-12-20T13:11:04.410Z,5.10
2018-12-20T13:13:33.669Z,7.67
2018-12-20T13:16:03.174Z,6.70
2018-12-20T13:18:32.465Z,6.70
2018-12-20T13:21:01.806Z,7.23
2018-12-20T13:23:31.371Z,8.23
2018-12-20T13:26:00.736Z,7.90
2018-12-20T13:28:30.239Z,8.07
2018-12-20T13:30:59.737Z,5.93
2018-12-20T13:33:29.129Z,6.83
2018-12-20T13:35:58.425Z,6.40
2018-12-20T13:38:27.775Z,7.90
2018-12-20T13:40:57.093Z,5.77
2018-12-20T13:43:26.432Z,8.97
2018-12-20T13:45:55.966Z,8.00
2018-12-20T13:48:25.963Z,4.97
2018-12-20T13:50:55.346Z,6.73
2018-12-20T13:53:24.696Z,8.17
2018-12-20T13:55:54.037Z,6.17
2018-12-20T13:58:23.397Z,4.00
2018-12-20T14:00:52.766Z,5.27
2018-12-20T14:03:22.270Z,7.10
2018-12-20T14:05:51.534Z,6.20
2018-12-20T14:08:20.933Z,7.07
2018-12-20T14:10:50.190Z,9.97
2018-12-20T14:13:19.445Z,4.70
2018-12-20T14:15:48.769Z,8.87
2018-12-20T14:18:18.069Z,6.57
2018-12-20T14:20:47.349Z,5.20
2018-12-20T14:23:16.639Z,6.13
2018-12-20T14:25:45.926Z,7.43
2018-12-20T14:28:15.158Z,6.37
2018-12-20T14:30:44.490Z,6.30
2018-12-20T14:33:23.064Z,4.70
2018-12-20T14:35:52.322Z,5.40
2018-12-20T14:38:22.738Z,5.10
2018-12-20T14:40:52.212Z,7.17
2018-12-20T14:43:21.556Z,7.50
2018-12-20T14:45:50.882Z,6.67
2018-12-20T14:48:25.309Z,4.67
2018-12-20T14:50:54.653Z,6.10
2018-12-20T14:53:24.086Z,5.10
2018-12-20T14:55:53.453Z,5.07
2018-12-20T14:58:22.816Z,4.63
2018-12-20T15:00:55.194Z,6.40
2018-12-20T15:03:24.480Z,6.90
2018-12-20T15:05:53.756Z,5.40
2018-12-20T15:08:23.140Z,7.40
2018-12-20T15:10:52.615Z,5.83
2018-12-20T15:13:22.008Z,6.70
2018-12-20T15:15:56.052Z,6.50
2018-12-20T15:18:26.435Z,7.63
2018-12-20T15:20:55.742Z,5.40
2018-12-20T15:23:25.113Z,6.47
2018-12-20T15:25:54.481Z,4.40
2018-12-20T15:28:23.894Z,7.80
2018-12-20T15:30:53.344Z,6.10
2018-12-20T15:33:22.653Z,6.93
2018-12-20T15:35:51.938Z,6.67
2018-12-20T15:38:22.489Z,6.47
2018-12-20T15:40:51.839Z,6.93
2018-12-20T15:43:21.122Z,5.97
2018-12-20T15:45:52.605Z,9.30
2018-12-20T15:48:22.160Z,4.63
2018-12-20T15:50:52.559Z,8.20
2018-12-20T15:53:21.907Z,5.63
2018-12-20T15:55:51.173Z,5.13
2018-12-20T15:58:20.999Z,5.10
2018-12-20T16:00:50.399Z,5.67
2018-12-20T16:03:19.754Z,8.40
2018-12-20T16:05:49.109Z,12.23
2018-12-20T16:08:18.384Z,7.03
2018-12-20T16:10:47.723Z,6.33
2018-12-20T16:13:17.065Z,8.00
2018-12-20T16:15:46.386Z,8.07
2018-12-20T16:18:15.835Z,9.57
2018-12-20T16:20:45.295Z,7.93
2018-12-20T16:23:14.939Z,9.70
2018-12-20T16:25:44.218Z,8.20
2018-12-20T16:28:15.637Z,10.10
2018-12-20T16:30:44.978Z,11.00
2018-12-20T16:33:15.454Z,12.87
2018-12-20T16:35:44.883Z,14.80
2018-12-20T16:38:14.720Z,11.63
2018-12-20T16:40:44.150Z,11.23
2018-12-20T16:43:14.639Z,12.13
2018-12-20T16:45:44.303Z,10.53
2018-12-20T16:48:15.804Z,10.37
2018-12-20T16:50:46.219Z,9.67
2018-12-20T16:53:15.677Z,9.10
2018-12-20T16:55:45.747Z,10.20
2018-12-20T16:58:15.109Z,9.17
2018-12-20T17:00:44.336Z,9.57
2018-12-20T17:03:13.862Z,14.03
2018-12-20T17:05:43.283Z,11.53
2018-12-20T17:08:12.858Z,15.33
2018-12-20T17:10:42.302Z,15.00
2018-12-20T17:13:11.634Z,14.73
2018-12-20T17:15:41.092Z,16.77
2018-12-20T17:18:10.509Z,17.53
2018-12-20T17:20:39.877Z,18.67
2018-12-20T17:23:09.286Z,22.97
2018-12-20T17:25:40.738Z,18.07
2018-12-20T17:28:10.005Z,18.90
2018-12-20T17:30:39.257Z,14.97
2018-12-20T17:33:08.577Z,16.73
2018-12-20T17:35:37.983Z,15.93
2018-12-20T17:38:07.335Z,16.83
2018-12-20T17:40:36.575Z,15.37
2018-12-20T17:43:05.812Z,15.60
2018-12-20T17:45:36.909Z,17.13
2018-12-20T17:48:06.435Z,19.13
2018-12-20T17:50:35.892Z,16.63
2018-12-20T17:53:05.191Z,19.57
2018-12-20T17:55:34.477Z,20.53
2018-12-20T17:58:03.725Z,22.33
2018-12-20T18:00:32.989Z,18.27
2018-12-20T18:03:02.419Z,21.93
2018-12-20T18:05:31.741Z,19.40
2018-12-20T18:08:01.065Z,21.93
2018-12-20T18:10:30.400Z,24.23
2018-12-20T18:12:59.792Z,22.33
2018-12-20T18:15:30.219Z,22.17
2018-12-20T18:17:59.590Z,21.73
2018-12-20T18:20:28.899Z,23.67
2018-12-20T18:22:58.162Z,26.03
2018-12-20T18:25:27.560Z,23.30
2018-12-20T18:27:56.956Z,24.50
2018-12-20T18:30:26.255Z,24.67
2018-12-20T18:32:55.655Z,24.27
2018-12-20T18:35:25.043Z,23.57
2018-12-20T18:37:54.379Z,20.60
2018-12-20T18:40:23.827Z,21.87
2018-12-20T18:42:53.450Z,17.63
2018-12-20T18:45:22.773Z,20.97
2018-12-20T18:47:52.125Z,20.73
2018-12-20T18:50:21.541Z,22.00
2018-12-20T18:52:50.881Z,21.03
2018-12-20T18:55:20.147Z,21.40
2018-12-20T18:57:49.469Z,25.33
2018-12-20T19:00:18.833Z,22.00
2018-12-20T19:02:48.141Z,23.67
2018-12-20T19:05:17.398Z,22.43
2018-12-20T19:07:46.783Z,23.77
2018-12-20T19:10:16.124Z,25.80
2018-12-20T19:12:45.421Z,25.50
2018-12-20T19:15:14.732Z,29.73
2018-12-20T19:17:44.106Z,26.47
2018-12-20T19:20:16.339Z,26.00
2018-12-20T19:22:44.667Z,31.23
2018-12-20T19:25:14.010Z,26.63
2018-12-20T19:27:43.267Z,30.80
2018-12-20T19:30:12.621Z,27.67
2018-12-20T19:32:41.919Z,28.83
2018-12-20T19:35:11.206Z,29.57
2018-12-20T19:37:40.472Z,29.53
2018-12-20T19:40:12.734Z,31.63
2018-12-20T19:42:41.971Z,27.27
2018-12-20T19:45:11.320Z,26.97
2018-12-20T19:47:40.639Z,28.43
2018-12-20T19:50:11.198Z,28.53
2018-12-20T19:52:40.564Z,31.73
2018-12-20T19:55:09.957Z,25.53
2018-12-20T19:57:39.238Z,28.37
2018-12-20T20:00:13.710Z,28.00
2018-12-20T20:02:42.983Z,28.50
2018-12-20T20:05:12.307Z,26.33
2018-12-20T20:07:41.638Z,26.13
2018-12-20T20:10:12.366Z,25.93
2018-12-20T20:12:41.693Z,25.47
2018-12-20T20:15:16.795Z,28.10
2018-12-20T20:17:44.347Z,25.27
2018-12-20T20:20:14.584Z,27.93
2018-12-20T20:22:44.036Z,27.27
2018-12-20T20:25:13.245Z,28.33
2018-12-20T20:27:42.667Z,28.67
2018-12-20T20:30:15.023Z,29.37
2018-12-20T20:32:44.320Z,28.03
2018-12-20T20:35:13.852Z,27.93
2018-12-20T20:37:43.123Z,30.13
2018-12-20T20:40:12.741Z,27.50
2018-12-20T20:45:45.521Z,25.80
2018-12-20T20:48:21.507Z,27.67
2018-12-20T20:50:50.799Z,31.57
2018-12-20T20:53:20.094Z,25.80
2018-12-20T20:55:51.579Z,25.30
2018-12-20T20:58:20.904Z,31.13
2018-12-20T21:00:50.165Z,28.60
2018-12-20T21:03:19.444Z,26.90
2018-12-20T21:05:56.444Z,33.57
2018-12-20T21:08:38.810Z,28.17
2018-12-20T21:11:14.128Z,29.43
2018-12-20T21:13:55.655Z,29.87
2018-12-20T21:16:41.235Z,33.20
2018-12-20T21:19:11.098Z,28.90
2018-12-20T21:24:44.461Z,34.53
2018-12-20T21:27:13.738Z,28.33
2018-12-20T21:29:43.178Z,26.73
2018-12-20T21:38:40.864Z,29.23
2018-12-20T21:41:10.209Z,33.47
2018-12-20T21:43:41.589Z,32.33
2018-12-20T21:46:10.887Z,29.67
2018-12-20T21:48:41.291Z,28.43
2018-12-20T21:51:10.535Z,26.13
2018-12-20T21:53:39.891Z,25.27
2018-12-20T21:56:18.705Z,31.47
2018-12-20T21:58:48.009Z,29.17
2018-12-20T22:01:18.419Z,27.60
2018-12-20T22:03:47.615Z,30.13
2018-12-20T22:06:16.864Z,28.90
2018-12-20T22:08:46.154Z,23.93
2018-12-20T22:11:21.182Z,24.37
2018-12-20T22:13:50.460Z,25.23
2018-12-20T22:16:19.743Z,28.50
2018-12-20T22:18:49.043Z,29.33
2018-12-20T22:21:18.477Z,22.57
2018-12-20T22:23:48.064Z,24.70
2018-12-20T22:26:17.499Z,26.83
2018-12-20T22:28:50.854Z,26.93
2018-12-20T22:31:20.124Z,26.80
2018-12-20T22:33:49.393Z,24.10
2018-12-20T22:36:18.784Z,24.00
2018-12-20T22:38:48.042Z,26.93
2018-12-20T22:41:17.306Z,20.83
2018-12-20T22:43:46.558Z,23.23
2018-12-20T22:46:15.797Z,24.60
2018-12-20T22:48:45.077Z,23.60
2018-12-20T22:51:14.302Z,24.20
2018-12-20T22:53:43.641Z,23.73
2018-12-20T22:56:12.925Z,26.73
2018-12-20T22:58:45.338Z,22.87
2018-12-20T23:01:14.828Z,22.83
2018-12-20T23:03:44.199Z,23.97
2018-12-20T23:06:13.444Z,24.93
2018-12-20T23:08:42.837Z,22.27
2018-12-20T23:11:12.156Z,24.33
2018-12-20T23:13:41.416Z,19.07
2018-12-20T23:16:13.334Z,20.67
2018-12-20T23:18:42.595Z,21.60
2018-12-20T23:21:11.890Z,21.80
2018-12-20T23:23:41.143Z,19.20
2018-12-20T23:26:10.378Z,23.13
2018-12-20T23:28:39.683Z,22.10
2018-12-20T23:31:09.038Z,22.63
2018-12-20T23:33:38.282Z,20.00
2018-12-20T23:36:07.580Z,22.57
2018-12-20T23:38:36.886Z,20.23
2018-12-20T23:41:06.134Z,21.40
2018-12-20T23:43:35.389Z,16.07
2018-12-20T23:46:04.832Z,17.70
2018-12-20T23:48:34.189Z,15.53
2018-12-20T23:51:03.479Z,22.63
2018-12-20T23:53:34.843Z,16.60
2018-12-20T23:56:04.219Z,15.40
2018-12-20T23:58:33.468Z,17.47
